sensor_id;sensor_type;location;lat;lon;timestamp;pressure;altitude;pressure_sealevel;temperature;humidity
53699;BME280;68408;53.952;27.612;2024-03-22T08:55:05;1015.7;;;11.9;49.3
53699;BME280;68408;53.952;27.612;2024-03-22T09:00:08;1015.7;;;12.1;49
53699;BME280;68408;53.952;27.612;2024-03-22T09:04:53;1015.7;;;12.1;49
53699;BME280;68408;53.952;27.612;2024-03-22T09:10:07;1015.7;;;12.1;48.6
53699;BME280;68408;53.952;27.612;2024-03-22T09:14:43;1015.7;;;12.1;48.6
53699;BME280;68408;53.952;27.612;2024-03-22T09:20:04;1015.6;;;12.3;48.2
53699;BME280;68408;53.952;27.612;2024-03-22T09:25:07;1015.5;;;12.5;47.9
53699;BME280;68408;53.952;27.612;2024-03-22T09:30:18;1015.4;;;12.6;47.5
53699;BME280;68408;53.952;27.612;2024-03-22T09:35:06;1015.4;;;12.5;47.8
53699;BME280;68408;53.952;27.612;2024-03-22T09:40:17;1015.3;;;12.4;48.5
53699;BME280;68408;53.952;27.612;2024-03-22T09:44:35;1015.3;;;12.4;48.5
53699;BME280;68408;53.952;27.612;2024-03-22T09:49:36;1015.2;;;12.5;48
53699;BME280;68408;53.952;27.612;2024-03-22T09:54:35;1015.1;;;12.8;47.5
53699;BME280;68408;53.952;27.612;2024-03-22T09:59:35;1015;;;12.9;47.4
53699;BME280;68408;53.952;27.612;2024-03-22T10:04:35;1015;;;13.2;46.9
53699;BME280;68408;53.952;27.612;2024-03-22T10:09:44;1014.9;;;13.3;46.8
53699;BME280;68408;53.952;27.612;2024-03-22T10:15:06;1014.9;;;13.3;46.8
53699;BME280;68408;53.952;27.612;2024-03-22T10:20:18;1014.8;;;13.1;46.9
53699;BME280;68408;53.952;27.612;2024-03-22T10:25:18;1014.7;;;12.9;47.2
53699;BME280;68408;53.952;27.612;2024-03-22T10:29:51;1014.7;;;12.9;47.2
53699;BME280;68408;53.952;27.612;2024-03-22T10:35:15;1014.7;;;12.6;47.7
53699;BME280;68408;53.952;27.612;2024-03-22T10:40:17;1014.7;;;12.3;48.4
53699;BME280;68408;53.952;27.612;2024-03-22T10:45:08;1014.6;;;12.2;48.7
53699;BME280;68408;53.952;27.612;2024-03-22T10:50:04;1014.6;;;12.2;48.7
53699;BME280;68408;53.952;27.612;2024-03-22T10:55:04;1014.5;;;12.4;48.5
53699;BME280;68408;53.952;27.612;2024-03-22T11:00:08;1014.5;;;12.6;48.3
53699;BME280;68408;53.952;27.612;2024-03-22T11:05:17;1014.4;;;12.5;48.6
53699;BME280;68408;53.952;27.612;2024-03-22T11:10:06;1014.4;;;12.4;48.8
53699;BME280;68408;53.952;27.612;2024-03-22T11:15:17;1014.3;;;12.4;48.9
53699;BME280;68408;53.952;27.612;2024-03-22T11:19:44;1014.3;;;12.4;48.9
53699;BME280;68408;53.952;27.612;2024-03-22T11:24:37;1014.2;;;12.4;48.9
53699;BME280;68408;53.952;27.612;2024-03-22T11:29:44;1014.2;;;12.5;48.8
53699;BME280;68408;53.952;27.612;2024-03-22T11:35:06;1013.9;;;12.8;48.1
53699;BME280;68408;53.952;27.612;2024-03-22T11:40:18;1013.8;;;13.4;47.2
53699;BME280;68408;53.952;27.612;2024-03-22T11:44:43;1013.8;;;13.4;47.2
53699;BME280;68408;53.952;27.612;2024-03-22T11:49:37;1013.7;;;13.7;46.2
53699;BME280;68408;53.952;27.612;2024-03-22T11:54:49;1013.6;;;14;45.6
53699;BME280;68408;53.952;27.612;2024-03-22T12:00:18;1013.5;;;14;44.8
53699;BME280;68408;53.952;27.612;2024-03-22T12:04:46;1013.5;;;14;44.8
53699;BME280;68408;53.952;27.612;2024-03-22T12:10:17;1013.4;;;13.4;45.7
53699;BME280;68408;53.952;27.612;2024-03-22T12:14:54;1013.4;;;13.4;45.7
53699;BME280;68408;53.952;27.612;2024-03-22T12:20:08;1013.3;;;13.4;46
53699;BME280;68408;53.952;27.612;2024-03-22T12:24:54;1013.3;;;13.4;46
53699;BME280;68408;53.952;27.612;2024-03-22T12:29:56;1013.3;;;13.2;46.5
53699;BME280;68408;53.952;27.612;2024-03-22T12:35:16;1013.3;;;12.9;47.2
53699;BME280;68408;53.952;27.612;2024-03-22T12:40:08;1013.2;;;12.9;47.4
53699;BME280;68408;53.952;27.612;2024-03-22T12:45:18;1013.2;;;12.6;47.9
53699;BME280;68408;53.952;27.612;2024-03-22T12:50:18;1013.1;;;12.5;48.2
53699;BME280;68408;53.952;27.612;2024-03-22T12:55:18;1013.1;;;12.3;48.7
53699;BME280;68408;53.952;27.612;2024-03-22T13:00:05;1013.1;;;12.3;48.7
53699;BME280;68408;53.952;27.612;2024-03-22T13:04:56;1013;;;12.3;49
53699;BME280;68408;53.952;27.612;2024-03-22T13:09:44;1013;;;12.3;49.1
53699;BME280;68408;53.952;27.612;2024-03-22T13:14:44;1013;;;12.3;49.3
53699;BME280;68408;53.952;27.612;2024-03-22T13:19:44;1012.9;;;12.1;49.9
53699;BME280;68408;53.952;27.612;2024-03-22T13:24:46;1012.9;;;12;50.4
53699;BME280;68408;53.952;27.612;2024-03-22T13:29:36;1012.9;;;12;50.7
53699;BME280;68408;53.952;27.612;2024-03-22T13:35:04;1012.8;;;12;50.7
53699;BME280;68408;53.952;27.612;2024-03-22T13:39:47;1012.7;;;12;50.8
53699;BME280;68408;53.952;27.612;2024-03-22T13:50:04;1012.6;;;12;51.3
53699;BME280;68408;53.952;27.612;2024-03-22T13:55:16;1012.6;;;11.7;52.3
53699;BME280;68408;53.952;27.612;2024-03-22T13:59:36;1012.6;;;11.7;52.3
53699;BME280;68408;53.952;27.612;2024-03-22T14:05:04;1012.6;;;11.7;52.7
53699;BME280;68408;53.952;27.612;2024-03-22T14:09:38;1012.5;;;11.7;52.8
53699;BME280;68408;53.952;27.612;2024-03-22T14:14:54;1012.4;;;11.6;53.2
53699;BME280;68408;53.952;27.612;2024-03-22T14:19:36;1012.4;;;11.5;53.7
53699;BME280;68408;53.952;27.612;2024-03-22T14:24:38;1012.4;;;11.3;54.4
53699;BME280;68408;53.952;27.612;2024-03-22T14:30:16;1012.2;;;11.1;55.5
53699;BME280;68408;53.952;27.612;2024-03-22T14:34:36;1012.2;;;11.1;55.5
53699;BME280;68408;53.952;27.612;2024-03-22T14:40:06;1012.1;;;11;56
53699;BME280;68408;53.952;27.612;2024-03-22T14:44:48;1012.1;;;11;56
53699;BME280;68408;53.952;27.612;2024-03-22T14:49:36;1012.1;;;11.1;56.1
53699;BME280;68408;53.952;27.612;2024-03-22T14:54:36;1012.1;;;11.1;56.2
53699;BME280;68408;53.952;27.612;2024-03-22T14:59:44;1012.1;;;11;56.3
53699;BME280;68408;53.952;27.612;2024-03-22T15:04:42;1012;;;11;56.4
53699;BME280;68408;53.952;27.612;2024-03-22T15:10:02;1011.9;;;11;56.4
53699;BME280;68408;53.952;27.612;2024-03-22T15:14:52;1011.8;;;11.1;56
53699;BME280;68408;53.952;27.612;2024-03-22T15:20:16;1011.6;;;11.3;55.3
53699;BME280;68408;53.952;27.612;2024-03-22T15:25:04;1011.6;;;11.3;55.3
53699;BME280;68408;53.952;27.612;2024-03-22T15:30:04;1011.5;;;11.3;55.2
53699;BME280;68408;53.952;27.612;2024-03-22T15:34:54;1011.4;;;11.3;55
53699;BME280;68408;53.952;27.612;2024-03-22T15:40:04;1011.4;;;11.3;54.9
53699;BME280;68408;53.952;27.612;2024-03-22T15:45:16;1011.4;;;11.2;55.2
53699;BME280;68408;53.952;27.612;2024-03-22T15:49:54;1011.4;;;11.2;55.2
53699;BME280;68408;53.952;27.612;2024-03-22T15:54:48;1011.3;;;11.2;55.1
53699;BME280;68408;53.952;27.612;2024-03-22T15:59:46;1011.3;;;11.2;55.2
53699;BME280;68408;53.952;27.612;2024-03-22T16:05:16;1011.3;;;11.2;55.3
53699;BME280;68408;53.952;27.612;2024-03-22T16:10:16;1011.2;;;11.1;55.5
53699;BME280;68408;53.952;27.612;2024-03-22T16:14:39;1011.2;;;11.1;55.5
53699;BME280;68408;53.952;27.612;2024-03-22T16:20:04;1011.2;;;11.1;55.6
53699;BME280;68408;53.952;27.612;2024-03-22T16:24:48;1011.3;;;11;55.8
53699;BME280;68408;53.952;27.612;2024-03-22T16:30:16;1011.3;;;11.1;56.1
53699;BME280;68408;53.952;27.612;2024-03-22T16:34:36;1011.3;;;11.1;56.1
53699;BME280;68408;53.952;27.612;2024-03-22T16:39:36;1011.3;;;11.1;56.2
53699;BME280;68408;53.952;27.612;2024-03-22T16:45:18;1011.2;;;11;56.8
53699;BME280;68408;53.952;27.612;2024-03-22T16:50:06;1011.2;;;10.9;57.4
53699;BME280;68408;53.952;27.612;2024-03-22T16:55:18;1011.2;;;10.9;57.7
53699;BME280;68408;53.952;27.612;2024-03-22T17:00:16;1011.1;;;10.9;57.9
53699;BME280;68408;53.952;27.612;2024-03-22T17:04:52;1011.1;;;10.9;57.9
53699;BME280;68408;53.952;27.612;2024-03-22T17:10:16;1011;;;10.8;58.5
53699;BME280;68408;53.952;27.612;2024-03-22T17:15:16;1010.8;;;10.8;58.4
53699;BME280;68408;53.952;27.612;2024-03-22T17:20:06;1010.8;;;10.8;58.4
53699;BME280;68408;53.952;27.612;2024-03-22T17:24:36;1010.8;;;10.8;58.4
53699;BME280;68408;53.952;27.612;2024-03-22T17:29:38;1010.7;;;10.8;58.5
53699;BME280;68408;53.952;27.612;2024-03-22T17:35:04;1010.7;;;10.8;58.6
53699;BME280;68408;53.952;27.612;2024-03-22T17:40:16;1010.5;;;10.8;58.7
53699;BME280;68408;53.952;27.612;2024-03-22T17:44:36;1010.5;;;10.8;58.7
53699;BME280;68408;53.952;27.612;2024-03-22T17:50:16;1010.3;;;10.9;58.9
53699;BME280;68408;53.952;27.612;2024-03-22T17:54:56;1010.3;;;10.9;58.9
53699;BME280;68408;53.952;27.612;2024-03-22T17:59:55;1010.2;;;10.9;58.7
53699;BME280;68408;53.952;27.612;2024-03-22T18:04:56;1010.2;;;10.9;58.6
53699;BME280;68408;53.952;27.612;2024-03-22T18:09:38;1010.3;;;10.8;58.6
53699;BME280;68408;53.952;27.612;2024-03-22T18:14:44;1010.3;;;10.7;59
53699;BME280;68408;53.952;27.612;2024-03-22T18:19:36;1010.3;;;10.7;59
53699;BME280;68408;53.952;27.612;2024-03-22T18:25:06;1010.3;;;10.6;59.4
53699;BME280;68408;53.952;27.612;2024-03-22T18:29:44;1010.3;;;10.6;59.4
53699;BME280;68408;53.952;27.612;2024-03-22T18:35:18;1010.3;;;10.6;59.5
53699;BME280;68408;53.952;27.612;2024-03-22T18:40:06;1010.2;;;10.6;59.7
53699;BME280;68408;53.952;27.612;2024-03-22T18:45:18;1010.2;;;10.6;59.4
53699;BME280;68408;53.952;27.612;2024-03-22T18:49:36;1010.2;;;10.6;59.4
53699;BME280;68408;53.952;27.612;2024-03-22T18:54:38;1010.1;;;10.6;59.5
53699;BME280;68408;53.952;27.612;2024-03-22T18:59:54;1010;;;10.6;59.3
53699;BME280;68408;53.952;27.612;2024-03-22T19:05:02;1009.9;;;10.5;59.5
53699;BME280;68408;53.952;27.612;2024-03-22T19:10:18;1009.9;;;10.4;60
53699;BME280;68408;53.952;27.612;2024-03-22T19:14:46;1009.9;;;10.4;60
53699;BME280;68408;53.952;27.612;2024-03-22T19:19:48;1009.8;;;10.3;60.4
53699;BME280;68408;53.952;27.612;2024-03-22T19:25:18;1009.7;;;10.3;60.7
53699;BME280;68408;53.952;27.612;2024-03-22T19:30:18;1009.5;;;10.3;60.8
53699;BME280;68408;53.952;27.612;2024-03-22T19:35:06;1009.5;;;10.4;60.6
53699;BME280;68408;53.952;27.612;2024-03-22T19:39:56;1009.5;;;10.4;60.6
53699;BME280;68408;53.952;27.612;2024-03-22T19:44:36;1009.4;;;10.4;60.4
53699;BME280;68408;53.952;27.612;2024-03-22T19:50:06;1009.4;;;10.4;60.5
53699;BME280;68408;53.952;27.612;2024-03-22T19:54:44;1009.4;;;10.4;60.5
53699;BME280;68408;53.952;27.612;2024-03-22T20:00:06;1009.2;;;10.3;60.8
53699;BME280;68408;53.952;27.612;2024-03-22T20:04:50;1009.2;;;10.3;60.8
53699;BME280;68408;53.952;27.612;2024-03-22T20:10:18;1008.9;;;10.4;60.7
53699;BME280;68408;53.952;27.612;2024-03-22T20:14:36;1008.9;;;10.4;60.7
53699;BME280;68408;53.952;27.612;2024-03-22T20:20:04;1008.9;;;10.4;60.7
53699;BME280;68408;53.952;27.612;2024-03-22T20:25:14;1008.7;;;10.4;60.6
53699;BME280;68408;53.952;27.612;2024-03-22T20:30:08;1008.7;;;10.4;60.7
53699;BME280;68408;53.952;27.612;2024-03-22T20:35:00;1008.7;;;10.4;60.7
